Time;durP1;ratioP1;P1;durP2;ratioP2;P2;SDS_P1;SDS_P2;PMS_P1;PMS_P2;Temp;Humidity;BMP_temperature;BMP_pressure;BME280_temperature;BME280_humidity;BME280_pressure;Samples;Min_cycle;Max_cycle;Signal;HPM_P1;HPM_P2
2022/07/11 00:01:36;;;;;;;2.67;1.10;;;18.10;99.90;;;;;;5077868;28;20040;-70
2022/07/11 00:04:02;;;;;;;3.22;1.10;;;18.10;99.90;;;;;;5077916;28;20044;-70
2022/07/11 00:06:28;;;;;;;4.20;1.20;;;18.10;99.90;;;;;;5077612;28;20348;-70
2022/07/11 00:08:54;;;;;;;3.15;1.30;;;18.10;99.90;;;;;;5077607;28;20047;-71
2022/07/11 00:11:19;;;;;;;3.55;1.20;;;18.20;99.90;;;;;;5077849;28;20033;-71
2022/07/11 00:13:45;;;;;;;3.35;1.00;;;18.20;99.90;;;;;;5077601;28;20047;-72
2022/07/11 00:16:11;;;;;;;5.72;1.10;;;18.10;99.90;;;;;;5077349;28;20091;-71
2022/07/11 00:18:36;;;;;;;2.88;1.23;;;18.10;99.90;;;;;;5077659;28;20041;-71
2022/07/11 00:21:02;;;;;;;5.20;1.70;;;18.20;99.90;;;;;;5077351;28;20432;-71
2022/07/11 00:23:28;;;;;;;3.47;1.80;;;18.20;99.90;;;;;;5077007;28;20052;-71
2022/07/11 00:25:54;;;;;;;3.97;1.30;;;18.20;99.90;;;;;;5077367;28;20123;-71
2022/07/11 00:28:20;;;;;;;2.70;1.50;;;18.20;99.90;;;;;;5077178;28;20044;-71
2022/07/11 00:30:46;;;;;;;5.22;1.20;;;18.20;99.90;;;;;;5077381;28;20059;-71
2022/07/11 00:33:11;;;;;;;3.83;1.60;;;18.20;99.90;;;;;;5077143;28;20047;-71
2022/07/11 00:35:37;;;;;;;6.82;2.03;;;18.20;99.90;;;;;;5077255;28;20068;-71
2022/07/11 00:38:03;;;;;;;2.53;1.23;;;18.20;99.90;;;;;;5076413;28;20421;-71
2022/07/11 00:40:28;;;;;;;6.07;1.70;;;18.30;99.90;;;;;;5077237;28;20028;-71
2022/07/11 00:42:54;;;;;;;4.45;1.77;;;18.30;99.90;;;;;;5077179;28;20043;-72
2022/07/11 00:45:20;;;;;;;4.82;1.92;;;18.30;99.90;;;;;;5075730;28;20049;-72
2022/07/11 00:47:46;;;;;;;4.60;1.90;;;18.20;99.90;;;;;;5076928;28;20036;-71
2022/07/11 00:50:12;;;;;;;5.25;2.17;;;18.30;99.90;;;;;;5075978;28;20051;-71
2022/07/11 00:52:40;;;;;;;4.82;2.00;;;18.30;99.90;;;;;;5076977;28;20433;-71
2022/07/11 00:55:09;;;;;;;6.50;1.95;;;18.40;99.90;;;;;;5076961;28;20045;-71
2022/07/11 00:57:36;;;;;;;3.75;1.77;;;18.30;99.90;;;;;;5076852;28;20044;-71
2022/07/11 01:00:03;;;;;;;6.53;2.13;;;18.30;99.90;;;;;;5076648;28;20059;-71
2022/07/11 01:02:28;;;;;;;4.55;1.95;;;18.20;99.90;;;;;;5076766;28;20047;-71
2022/07/11 01:04:54;;;;;;;4.35;2.67;;;18.30;99.90;;;;;;5075612;28;20032;-71
2022/07/11 01:07:20;;;;;;;5.95;2.40;;;18.30;99.90;;;;;;5076803;28;20102;-71
2022/07/11 01:09:47;;;;;;;9.25;2.78;;;18.30;99.90;;;;;;5076585;28;20080;-71
2022/07/11 01:12:12;;;;;;;5.65;2.13;;;18.30;99.90;;;;;;5076573;28;20381;-72
2022/07/11 01:14:38;;;;;;;6.40;1.90;;;18.10;99.90;;;;;;5076892;28;20123;-71
2022/07/11 01:17:04;;;;;;;3.75;2.00;;;18.10;99.90;;;;;;5075646;28;20036;-71
2022/07/11 01:19:30;;;;;;;7.47;2.65;;;18.20;99.90;;;;;;5075193;28;20319;-71
2022/07/11 01:22:01;;;;;;;3.78;2.08;;;18.20;99.90;;;;;;5076469;28;20036;-71
2022/07/11 01:24:27;;;;;;;3.88;1.95;;;18.20;99.90;;;;;;5075218;28;20131;-71
2022/07/11 01:26:53;;;;;;;4.38;1.92;;;18.10;99.90;;;;;;5076625;28;20119;-72
2022/07/11 01:29:18;;;;;;;2.53;1.73;;;18.10;99.90;;;;;;5076548;28;20064;-71
2022/07/11 01:31:44;;;;;;;2.55;1.45;;;18.10;99.90;;;;;;5076684;28;20086;-71
2022/07/11 01:34:11;;;;;;;3.33;1.80;;;18.20;99.90;;;;;;5076601;28;20047;-71
2022/07/11 01:36:37;;;;;;;5.63;1.88;;;18.20;99.90;;;;;;5076319;28;20487;-71
2022/07/11 01:39:03;;;;;;;4.38;2.17;;;18.20;99.90;;;;;;5075517;28;20049;-71
2022/07/11 01:41:29;;;;;;;5.10;1.50;;;18.20;99.90;;;;;;5076326;28;20090;-71
2022/07/11 01:43:55;;;;;;;3.72;1.70;;;18.30;99.90;;;;;;5076206;28;20325;-71
2022/07/11 01:46:21;;;;;;;3.13;2.10;;;18.20;99.90;;;;;;5076223;28;20418;-71
2022/07/11 01:48:47;;;;;;;5.28;2.20;;;18.20;99.90;;;;;;5076113;28;20375;-71
2022/07/11 01:51:13;;;;;;;3.92;2.28;;;18.20;99.90;;;;;;5076203;28;20068;-71
2022/07/11 01:53:38;;;;;;;3.47;2.13;;;18.10;99.90;;;;;;5076453;28;20119;-71
2022/07/11 01:56:04;;;;;;;5.20;2.40;;;18.10;99.90;;;;;;5076149;28;20040;-71
2022/07/11 01:58:30;;;;;;;4.78;2.38;;;18.00;99.90;;;;;;5076436;28;20045;-71
2022/07/11 02:00:57;;;;;;;5.53;2.50;;;18.00;99.90;;;;;;5077657;28;20048;-72
2022/07/11 02:03:23;;;;;;;2.80;2.47;;;18.00;99.90;;;;;;5080243;28;20093;-71
2022/07/11 02:05:48;;;;;;;5.75;2.15;;;18.10;99.90;;;;;;5080318;28;20411;-71
2022/07/11 02:08:14;;;;;;;6.90;2.97;;;18.10;99.90;;;;;;5080178;28;20329;-71
2022/07/11 02:10:46;;;;;;;4.82;2.88;;;18.10;99.90;;;;;;5078976;28;20048;-71
2022/07/11 02:13:17;;;;;;;6.70;2.70;;;18.20;99.90;;;;;;5079745;28;20390;-72
2022/07/11 02:15:43;;;;;;;6.32;3.05;;;18.10;99.90;;;;;;5079843;28;20115;-71
2022/07/11 02:18:10;;;;;;;6.28;3.03;;;18.10;99.90;;;;;;5079663;28;20445;-71
2022/07/11 02:20:37;;;;;;;7.55;2.83;;;18.00;99.90;;;;;;5079441;28;20037;-71
2022/07/11 02:23:03;;;;;;;6.00;2.90;;;17.90;99.90;;;;;;5079631;28;20040;-71
2022/07/11 02:25:30;;;;;;;5.68;2.97;;;17.90;99.90;;;;;;5079427;28;20060;-71
2022/07/11 02:27:56;;;;;;;6.07;2.75;;;17.80;99.90;;;;;;5079681;28;20359;-71
2022/07/11 02:30:22;;;;;;;7.75;3.17;;;17.80;99.90;;;;;;5079680;28;20040;-72
2022/07/11 02:32:49;;;;;;;4.85;2.50;;;17.70;99.90;;;;;;5079751;28;20036;-71
2022/07/11 02:35:15;;;;;;;7.68;2.55;;;17.60;99.90;;;;;;5079633;28;20048;-72
2022/07/11 02:37:40;;;;;;;4.60;2.58;;;17.60;99.90;;;;;;5079683;28;20333;-71
2022/07/11 02:40:07;;;;;;;4.50;2.75;;;17.50;99.90;;;;;;5079382;28;20086;-72
2022/07/11 02:42:33;;;;;;;6.05;2.60;;;17.50;99.90;;;;;;5079661;28;20032;-71
2022/07/11 02:44:58;;;;;;;6.70;2.90;;;17.60;99.90;;;;;;5078307;28;20495;-71
2022/07/11 02:47:24;;;;;;;4.20;2.47;;;17.60;99.90;;;;;;5079343;28;20082;-71
2022/07/11 02:49:49;;;;;;;6.30;3.03;;;17.50;99.90;;;;;;5077701;28;20394;-72
2022/07/11 02:52:15;;;;;;;3.95;2.22;;;17.60;99.90;;;;;;5079261;28;20051;-72
2022/07/11 02:54:41;;;;;;;6.93;3.03;;;17.60;99.90;;;;;;5079194;28;20079;-71
2022/07/11 02:57:06;;;;;;;7.85;2.80;;;17.70;99.90;;;;;;5079222;28;20102;-71
2022/07/11 02:59:32;;;;;;;8.68;2.90;;;17.70;99.90;;;;;;5079038;28;20383;-71
2022/07/11 03:01:59;;;;;;;8.10;2.78;;;17.90;99.90;;;;;;5079244;28;20048;-71
2022/07/11 03:04:25;;;;;;;5.65;2.90;;;17.80;99.90;;;;;;5078953;28;20315;-71
2022/07/11 03:06:51;;;;;;;6.10;2.40;;;17.80;99.90;;;;;;5079153;28;20135;-72
2022/07/11 03:09:16;;;;;;;4.20;2.40;;;17.80;99.90;;;;;;5078803;28;20051;-71
2022/07/11 03:11:42;;;;;;;7.82;2.97;;;17.80;99.90;;;;;;5078864;28;20037;-72
2022/07/11 03:14:09;;;;;;;4.75;2.30;;;17.80;99.90;;;;;;5078582;28;20349;-71
2022/07/11 03:16:34;;;;;;;7.22;3.08;;;17.90;99.90;;;;;;5078808;28;20037;-71
2022/07/11 03:19:00;;;;;;;6.53;3.03;;;17.90;99.90;;;;;;5078475;28;20481;-71
2022/07/11 03:21:26;;;;;;;6.88;2.65;;;17.90;99.90;;;;;;5078613;28;20052;-72
2022/07/11 03:23:52;;;;;;;7.90;2.45;;;17.90;99.90;;;;;;5078182;28;20080;-72
2022/07/11 03:26:18;;;;;;;4.57;1.92;;;17.90;99.90;;;;;;5078642;28;20041;-71
2022/07/11 03:28:44;;;;;;;6.97;2.75;;;17.90;99.90;;;;;;5078587;28;20484;-72
2022/07/11 03:31:10;;;;;;;5.03;2.20;;;17.90;99.90;;;;;;5078417;28;20120;-71
2022/07/11 03:33:36;;;;;;;8.80;2.53;;;17.90;99.90;;;;;;5078548;28;20055;-71
2022/07/11 03:36:03;;;;;;;5.30;1.98;;;18.00;99.90;;;;;;5078573;28;20037;-72
2022/07/11 03:38:28;;;;;;;5.68;2.33;;;18.00;99.90;;;;;;5078347;28;20097;-71
2022/07/11 03:40:55;;;;;;;4.38;1.75;;;17.90;99.90;;;;;;5078590;28;20036;-71
2022/07/11 03:43:22;;;;;;;3.78;1.92;;;17.80;99.90;;;;;;5078133;28;20080;-72
2022/07/11 03:45:48;;;;;;;5.47;1.85;;;17.90;99.90;;;;;;5078452;28;20321;-71
2022/07/11 03:48:13;;;;;;;4.65;2.00;;;18.00;99.90;;;;;;5078060;28;20028;-71
2022/07/11 03:50:39;;;;;;;3.55;1.95;;;17.90;99.90;;;;;;5077616;28;20055;-71
2022/07/11 03:53:05;;;;;;;6.85;2.28;;;17.90;99.90;;;;;;5078265;28;20441;-71
2022/07/11 03:55:31;;;;;;;3.65;1.70;;;17.80;99.90;;;;;;5076842;28;20171;-71
2022/07/11 03:57:57;;;;;;;5.47;2.17;;;17.80;99.90;;;;;;5078107;28;20060;-71
2022/07/11 04:00:23;;;;;;;3.30;1.60;;;17.90;99.90;;;;;;5077874;28;20123;-71
2022/07/11 04:02:49;;;;;;;3.08;1.50;;;17.90;99.90;;;;;;5077960;28;20120;-71
2022/07/11 04:05:15;;;;;;;3.15;1.35;;;17.80;99.90;;;;;;5077610;28;20044;-71
2022/07/11 04:07:41;;;;;;;3.55;1.75;;;17.80;99.90;;;;;;5078102;28;20040;-71
2022/07/11 04:10:08;;;;;;;3.95;1.60;;;17.80;99.90;;;;;;5077654;28;20036;-71
2022/07/11 04:12:34;;;;;;;2.55;1.42;;;17.80;99.90;;;;;;5077731;28;20036;-71
2022/07/11 04:15:00;;;;;;;4.85;1.50;;;17.70;99.90;;;;;;5077723;28;20036;-71
2022/07/11 04:17:26;;;;;;;3.08;1.75;;;17.80;99.90;;;;;;5077545;28;20051;-71
2022/07/11 04:19:53;;;;;;;4.70;1.50;;;17.80;99.90;;;;;;5077226;28;20129;-71
2022/07/11 04:22:19;;;;;;;5.22;1.27;;;17.80;99.90;;;;;;5077676;28;20071;-71
2022/07/11 04:24:45;;;;;;;2.72;1.33;;;17.80;99.90;;;;;;5076328;28;20053;-71
2022/07/11 04:27:10;;;;;;;5.18;1.58;;;17.90;99.90;;;;;;5076232;28;20075;-71
2022/07/11 04:29:36;;;;;;;3.63;1.35;;;18.00;99.90;;;;;;5076600;28;20045;-72
2022/07/11 04:32:02;;;;;;;6.53;1.45;;;17.90;99.90;;;;;;5077230;28;20075;-71
2022/07/11 04:34:28;;;;;;;1.58;0.90;;;17.80;99.90;;;;;;5077273;28;20044;-71
2022/07/11 04:36:54;;;;;;;2.85;1.20;;;17.80;99.90;;;;;;5077265;28;20112;-71
2022/07/11 04:39:19;;;;;;;3.65;1.40;;;17.80;99.90;;;;;;5077095;28;20380;-71
2022/07/11 04:41:45;;;;;;;4.65;1.42;;;17.70;99.90;;;;;;5076993;28;20071;-71
2022/07/11 04:44:11;;;;;;;3.88;1.15;;;17.70;99.90;;;;;;5076962;28;20080;-71
2022/07/11 04:46:37;;;;;;;5.53;1.50;;;17.90;99.90;;;;;;5076910;28;20037;-72
2022/07/11 04:49:03;;;;;;;6.32;1.88;;;18.00;99.90;;;;;;5076429;28;20428;-72
2022/07/11 04:51:28;;;;;;;4.88;1.33;;;18.00;99.90;;;;;;5077202;28;20120;-71
2022/07/11 04:53:54;;;;;;;5.93;1.73;;;18.00;99.90;;;;;;5076931;28;20428;-71
2022/07/11 04:56:20;;;;;;;3.17;0.95;;;18.00;99.90;;;;;;5076157;28;20040;-71
2022/07/11 04:58:45;;;;;;;4.95;1.40;;;18.00;99.90;;;;;;5076799;28;20392;-71
2022/07/11 05:01:11;;;;;;;3.95;1.33;;;18.00;99.90;;;;;;5076888;28;20094;-71
2022/07/11 05:03:37;;;;;;;2.35;0.85;;;17.90;99.90;;;;;;5075540;28;20372;-72
2022/07/11 05:06:04;;;;;;;7.72;1.83;;;17.90;99.90;;;;;;5076491;28;20040;-72
2022/07/11 05:08:30;;;;;;;2.95;0.93;;;17.90;99.90;;;;;;5076914;28;20036;-71
2022/07/11 05:10:56;;;;;;;3.42;1.23;;;18.00;99.90;;;;;;5076707;28;20055;-71
2022/07/11 05:13:22;;;;;;;4.03;1.58;;;18.10;99.90;;;;;;5076612;28;20491;-71
2022/07/11 05:15:48;;;;;;;3.13;0.70;;;18.20;99.90;;;;;;5076595;28;20037;-72
2022/07/11 05:18:14;;;;;;;1.98;0.77;;;18.20;99.90;;;;;;5076767;28;20037;-72
2022/07/11 05:20:39;;;;;;;1.88;0.70;;;18.20;99.90;;;;;;5076011;28;20055;-71
2022/07/11 05:23:05;;;;;;;1.60;0.60;;;18.30;99.90;;;;;;5076576;28;20044;-74
2022/07/11 05:25:31;;;;;;;1.30;0.60;;;18.30;99.90;;;;;;5076230;28;20048;-71
2022/07/11 05:27:56;;;;;;;3.22;0.63;;;18.30;99.90;;;;;;5075427;28;20049;-71
2022/07/11 05:30:22;;;;;;;0.82;0.40;;;18.30;99.90;;;;;;5076608;28;20043;-71
2022/07/11 05:32:47;;;;;;;1.92;0.60;;;18.40;99.90;;;;;;5076207;28;20086;-72
2022/07/11 05:35:13;;;;;;;2.63;0.50;;;18.40;99.90;;;;;;5076094;28;20094;-71
2022/07/11 05:37:39;;;;;;;3.67;0.55;;;18.30;99.90;;;;;;5075514;28;20046;-71
2022/07/11 05:40:05;;;;;;;2.53;0.63;;;18.40;99.90;;;;;;5076646;28;20045;-72
2022/07/11 05:42:32;;;;;;;2.75;0.50;;;18.40;99.90;;;;;;5076410;28;20066;-71
2022/07/11 05:44:57;;;;;;;2.97;0.45;;;18.40;99.90;;;;;;5075288;28;20040;-71
2022/07/11 05:47:23;;;;;;;4.65;0.70;;;18.50;99.90;;;;;;5075435;28;20085;-73
2022/07/11 05:49:49;;;;;;;4.28;0.60;;;18.40;99.90;;;;;;5075737;28;20037;-71
2022/07/11 05:52:15;;;;;;;3.42;0.63;;;18.50;99.90;;;;;;5076095;28;20478;-71
2022/07/11 05:54:41;;;;;;;2.83;0.63;;;18.40;99.90;;;;;;5076331;28;20448;-71
2022/07/11 05:57:06;;;;;;;2.28;0.52;;;18.30;99.90;;;;;;5075384;28;20044;-71
2022/07/11 05:59:34;;;;;;;1.15;0.40;;;18.20;99.90;;;;;;5076249;28;20036;-71
2022/07/11 06:02:02;;;;;;;1.55;0.50;;;18.10;99.90;;;;;;5076126;28;20032;-72
2022/07/11 06:04:27;;;;;;;2.15;0.40;;;18.20;99.90;;;;;;5076030;28;20051;-71
2022/07/11 06:06:53;;;;;;;3.15;0.50;;;18.30;99.90;;;;;;5076143;28;20033;-71
2022/07/11 06:09:18;;;;;;;5.35;0.70;;;18.30;99.90;;;;;;5075148;28;20040;-71
2022/07/11 06:11:44;;;;;;;1.30;0.40;;;18.30;99.90;;;;;;5076144;28;20044;-71
2022/07/11 06:14:10;;;;;;;1.40;0.50;;;18.30;99.90;;;;;;5076017;28;20070;-71
2022/07/11 06:16:36;;;;;;;2.65;0.50;;;18.30;99.90;;;;;;5076019;28;20060;-72
2022/07/11 06:19:02;;;;;;;2.03;0.30;;;18.30;99.90;;;;;;5075876;28;20421;-71
2022/07/11 06:21:28;;;;;;;2.60;0.40;;;18.40;99.90;;;;;;5076053;28;20039;-71
2022/07/11 06:23:54;;;;;;;1.38;0.50;;;18.40;99.90;;;;;;5075828;28;20336;-71
2022/07/11 06:26:20;;;;;;;1.88;0.30;;;18.50;99.90;;;;;;5075899;28;20115;-71
2022/07/11 06:28:46;;;;;;;1.50;0.47;;;18.80;99.90;;;;;;5075140;28;20036;-71
2022/07/11 06:31:12;;;;;;;0.98;0.47;;;18.90;99.90;;;;;;5075856;28;20410;-72
2022/07/11 06:33:38;;;;;;;0.68;0.30;;;18.90;99.90;;;;;;5075962;28;20069;-71
2022/07/11 06:36:05;;;;;;;2.28;0.60;;;19.00;99.90;;;;;;5075867;28;20333;-71
2022/07/11 06:38:32;;;;;;;1.67;0.50;;;18.90;99.90;;;;;;5075820;28;20032;-71
2022/07/11 06:40:57;;;;;;;1.00;0.30;;;18.80;99.90;;;;;;5075943;28;20425;-71
2022/07/11 06:43:24;;;;;;;1.30;0.30;;;18.90;99.90;;;;;;5075688;28;20041;-71
2022/07/11 06:45:50;;;;;;;0.95;0.30;;;19.00;99.90;;;;;;5075881;28;20047;-72
2022/07/11 06:48:16;;;;;;;2.05;0.50;;;19.00;99.90;;;;;;5077522;28;20033;-71
2022/07/11 06:50:42;;;;;;;3.30;0.40;;;18.90;99.90;;;;;;5079088;28;20093;-71
2022/07/11 06:53:08;;;;;;;1.77;0.50;;;18.80;99.90;;;;;;5079260;28;20044;-71
2022/07/11 06:55:34;;;;;;;1.60;0.50;;;18.70;99.90;;;;;;5079360;28;20040;-71
2022/07/11 06:58:00;;;;;;;2.13;0.45;;;18.70;99.90;;;;;;5079163;28;20048;-71
2022/07/11 07:00:27;;;;;;;2.47;0.30;;;18.90;99.90;;;;;;5078875;28;20421;-72
2022/07/11 07:02:56;;;;;;;2.13;0.25;;;19.00;99.90;;;;;;5079298;28;20111;-71
2022/07/11 07:05:23;;;;;;;1.27;0.30;;;19.00;99.90;;;;;;5078965;28;20119;-71
2022/07/11 07:07:49;;;;;;;0.95;0.28;;;19.20;99.90;;;;;;5079200;28;20108;-71
2022/07/11 07:10:15;;;;;;;3.58;0.52;;;19.20;99.90;;;;;;5078877;28;20036;-72
2022/07/11 07:12:40;;;;;;;3.45;0.40;;;19.00;99.90;;;;;;5078759;28;20311;-71
2022/07/11 07:15:07;;;;;;;2.03;0.40;;;18.90;99.90;;;;;;5078674;28;20429;-72
2022/07/11 07:17:33;;;;;;;1.15;0.30;;;18.80;99.90;;;;;;5078865;28;20040;-71
2022/07/11 07:19:58;;;;;;;2.38;0.45;;;18.80;99.90;;;;;;5078478;28;20421;-71
2022/07/11 07:22:24;;;;;;;1.70;0.50;;;18.80;99.90;;;;;;5078726;28;20090;-71
2022/07/11 07:24:49;;;;;;;1.15;0.38;;;18.60;99.90;;;;;;5078213;28;20049;-71
2022/07/11 07:27:15;;;;;;;1.30;0.43;;;18.60;99.90;;;;;;5078536;28;20044;-72
2022/07/11 07:29:41;;;;;;;1.67;0.52;;;18.60;99.90;;;;;;5078669;28;20063;-72
2022/07/11 07:32:07;;;;;;;2.30;0.57;;;18.60;99.90;;;;;;5078436;28;20056;-73
2022/07/11 07:34:33;;;;;;;3.10;0.60;;;18.40;99.90;;;;;;5079780;28;20114;-70
2022/07/11 07:36:59;;;;;;;1.30;0.32;;;18.50;99.90;;;;;;5080698;28;20040;-72
2022/07/11 07:39:25;;;;;;;1.70;0.50;;;18.50;99.90;;;;;;5078420;28;20055;-71
2022/07/11 07:41:51;;;;;;;1.63;0.65;;;18.60;99.90;;;;;;5078465;28;20040;-71
2022/07/11 07:44:16;;;;;;;1.85;0.30;;;18.90;99.90;;;;;;5078119;28;20094;-71
2022/07/11 07:46:42;;;;;;;1.48;0.43;;;19.20;99.90;;;;;;5078498;28;20036;-70
2022/07/11 07:49:08;;;;;;;1.88;0.55;;;19.40;99.90;;;;;;5078314;28;20328;-71
2022/07/11 07:51:34;;;;;;;0.80;0.20;;;19.40;99.90;;;;;;5078184;28;20119;-71
2022/07/11 07:53:59;;;;;;;1.27;0.30;;;19.30;99.90;;;;;;5076987;28;20076;-71
2022/07/11 07:56:25;;;;;;;0.82;0.30;;;19.30;99.90;;;;;;5077224;28;20086;-71
2022/07/11 07:58:51;;;;;;;1.00;0.40;;;19.20;99.90;;;;;;5077750;28;20036;-71
2022/07/11 08:01:35;;;;;;;1.52;0.40;;;19.10;99.90;;;;;;5077840;28;20044;-71
2022/07/11 08:04:03;;;;;;;1.40;0.40;;;19.20;99.90;;;;;;5110677;28;20396;-71
2022/07/11 08:06:29;;;;;;;1.23;0.50;;;19.10;99.90;;;;;;5077902;28;20037;-71
2022/07/11 08:08:55;;;;;;;1.13;0.30;;;19.10;99.90;;;;;;5078009;28;20119;-70
2022/07/11 08:11:20;;;;;;;2.33;0.40;;;19.20;99.90;;;;;;5077793;28;20367;-71
2022/07/11 08:13:46;;;;;;;1.10;0.20;;;19.30;99.90;;;;;;5076885;28;20473;-71
2022/07/11 08:16:12;;;;;;;1.00;0.25;;;19.10;99.90;;;;;;5077667;28;20040;-71
2022/07/11 08:18:37;;;;;;;1.48;0.30;;;19.00;99.90;;;;;;5077801;28;20093;-71
2022/07/11 08:21:03;;;;;;;0.32;0.15;;;19.00;99.90;;;;;;5077033;28;20044;-70
2022/07/11 08:23:29;;;;;;;0.55;0.20;;;19.10;99.90;;;;;;5077342;28;20044;-71
2022/07/11 08:25:55;;;;;;;0.38;0.10;;;19.00;99.90;;;;;;5077238;28;20036;-71
2022/07/11 08:28:20;;;;;;;0.13;0.10;;;19.20;99.90;;;;;;5077393;28;20037;-83
2022/07/11 08:30:46;;;;;;;0.10;0.10;;;19.10;99.90;;;;;;5076405;28;20329;-71
2022/07/11 08:33:12;;;;;;;0.35;0.10;;;19.10;99.90;;;;;;5077215;28;20032;-71
2022/07/11 08:35:38;;;;;;;1.45;0.20;;;19.30;99.90;;;;;;5076177;28;20041;-71
2022/07/11 08:38:04;;;;;;;0.45;0.10;;;19.50;99.90;;;;;;5077296;28;20042;-71
2022/07/11 08:40:30;;;;;;;0.65;0.20;;;19.50;99.90;;;;;;5077295;28;20036;-71
2022/07/11 08:42:59;;;;;;;1.73;0.10;;;19.60;99.90;;;;;;5076060;28;20345;-71
2022/07/11 08:45:31;;;;;;;1.40;0.22;;;19.60;99.90;;;;;;5077140;28;20043;-71
2022/07/11 08:47:59;;;;;;;0.10;0.03;;;19.70;99.90;;;;;;5077290;28;20047;-71
2022/07/11 08:50:27;;;;;;;0.55;0.10;;;19.80;99.90;;;;;;5076505;28;20046;-71
2022/07/11 08:52:55;;;;;;;1.05;0.20;;;19.80;99.90;;;;;;5076926;28;20357;-71
2022/07/11 08:55:20;;;;;;;1.48;0.20;;;19.90;99.90;;;;;;5076703;28;20075;-71
2022/07/11 08:57:47;;;;;;;1.70;0.20;;;19.90;99.90;;;;;;5076848;28;20426;-71
2022/07/11 09:00:13;;;;;;;2.20;0.13;;;19.80;99.90;;;;;;5076853;28;20111;-71
2022/07/11 09:02:42;;;;;;;1.90;0.17;;;19.90;99.90;;;;;;5076785;28;20103;-71
2022/07/11 09:05:08;;;;;;;0.90;0.30;;;20.00;99.90;;;;;;5076656;28;20418;-69
2022/07/11 09:07:41;;;;;;;0.20;0.08;;;19.90;99.90;;;;;;5077030;28;20045;-70
2022/07/11 09:10:07;;;;;;;0.28;0.10;;;19.90;99.90;;;;;;5076131;28;20088;-70
2022/07/11 09:12:34;;;;;;;1.63;0.20;;;20.00;99.90;;;;;;5075802;28;20037;-71
2022/07/11 09:15:00;;;;;;;1.17;0.20;;;20.10;99.90;;;;;;5075988;28;20036;-71
2022/07/11 09:17:28;;;;;;;0.43;0.05;;;20.20;99.90;;;;;;5087267;28;20058;-70
2022/07/11 09:19:54;;;;;;;2.08;0.22;;;20.20;99.90;;;;;;5093474;28;20072;-71
2022/07/11 09:27:48;;;;;;;0.73;0.10;;;19.90;99.90;;;;;;5095804;28;20432;-71
2022/07/11 09:30:28;;;;;;;1.15;0.10;;;20.10;99.90;;;;;;5095642;28;20100;-71
2022/07/11 09:33:00;;;;;;;0.10;0.00;;;20.30;99.90;;;;;;5096383;28;20024;-71
2022/07/11 09:35:31;;;;;;;1.13;0.13;;;20.30;99.90;;;;;;5096599;28;20052;-71
2022/07/11 09:37:57;;;;;;;0.10;0.10;;;20.40;99.90;;;;;;5087537;28;20048;-70
2022/07/11 09:40:25;;;;;;;1.92;0.10;;;20.30;99.90;;;;;;5076484;28;20032;-71
2022/07/11 09:42:55;;;;;;;0.38;0.10;;;20.30;99.90;;;;;;5076127;28;20447;-71
2022/07/11 09:45:26;;;;;;;0.70;0.10;;;20.50;99.90;;;;;;5092271;28;20036;-71
2022/07/11 09:48:00;;;;;;;0.47;0.10;;;20.40;99.90;;;;;;5096363;28;20032;-70
2022/07/11 09:50:30;;;;;;;0.93;0.03;;;20.50;99.90;;;;;;5095902;28;20046;-71
2022/07/11 09:53:10;;;;;;;0.57;0.10;;;20.30;99.90;;;;;;5096257;28;20051;-70
2022/07/11 09:55:45;;;;;;;1.45;0.10;;;20.20;99.90;;;;;;5080601;28;20505;-70
2022/07/11 09:58:16;;;;;;;3.28;0.20;;;19.90;99.90;;;;;;5086595;28;20114;-71
2022/07/11 10:00:44;;;;;;;0.30;0.10;;;20.00;99.90;;;;;;5096452;28;20391;-71
2022/07/11 10:03:11;;;;;;;0.20;0.10;;;20.20;99.90;;;;;;5096277;28;20131;-71
2022/07/11 10:05:38;;;;;;;1.38;0.10;;;20.20;99.90;;;;;;5095328;28;20051;-68
2022/07/11 10:08:04;;;;;;;0.85;0.65;;;20.40;99.90;;;;;;5096020;28;20044;-72
2022/07/11 10:10:31;;;;;;;0.95;0.13;;;20.30;99.90;;;;;;5083610;28;20041;-69
2022/07/11 10:12:57;;;;;;;1.67;0.30;;;20.30;99.90;;;;;;5083999;28;20451;-68
2022/07/11 10:15:35;;;;;;;3.00;0.10;;;20.50;99.90;;;;;;5096224;28;20036;-67
2022/07/11 10:18:11;;;;;;;1.10;0.10;;;20.40;99.90;;;;;;5095844;28;20089;-71
2022/07/11 10:20:56;;;;;;;0.20;0.10;;;20.20;99.90;;;;;;5093411;28;20115;-70
2022/07/11 10:23:33;;;;;;;2.65;0.10;;;19.90;99.90;;;;;;5094799;28;20046;-68
2022/07/11 10:26:21;;;;;;;0.20;0.05;;;19.70;99.90;;;;;;5097221;28;20123;-67
2022/07/11 10:28:52;;;;;;;0.08;0.00;;;19.70;99.90;;;;;;5089313;28;20039;-69
2022/07/11 10:31:24;;;;;;;0.30;0.10;;;19.70;99.90;;;;;;5096984;28;20352;-70
2022/07/11 10:34:07;;;;;;;0.38;0.05;;;19.90;99.90;;;;;;5099672;28;20040;-69
2022/07/11 10:36:39;;;;;;;1.77;0.20;;;20.00;99.90;;;;;;5098675;28;20044;-69
2022/07/11 10:39:27;;;;;;;1.60;0.20;;;20.00;99.90;;;;;;5099567;28;20367;-69
2022/07/11 10:41:54;;;;;;;2.47;0.38;;;20.00;99.90;;;;;;5099766;28;20118;-69
2022/07/11 10:44:21;;;;;;;1.77;0.17;;;20.00;99.90;;;;;;5099595;28;20043;-70
2022/07/11 10:46:46;;;;;;;0.95;0.10;;;20.10;99.90;;;;;;5095614;28;20111;-75
2022/07/11 10:49:12;;;;;;;0.40;0.20;;;20.20;99.90;;;;;;5095520;28;20107;-69
2022/07/11 10:51:52;;;;;;;1.63;0.10;;;20.20;99.90;;;;;;5098683;28;20046;-69
2022/07/11 10:54:42;;;;;;;2.08;0.20;;;20.40;99.90;;;;;;5079117;28;20456;-70
2022/07/11 10:57:30;;;;;;;1.15;0.10;;;20.30;99.90;;;;;;5094880;28;20079;-70
2022/07/11 11:00:08;;;;;;;0.85;0.20;;;20.30;99.90;;;;;;5095710;28;20058;-71
2022/07/11 11:03:02;;;;;;;2.00;0.17;;;20.50;99.90;;;;;;5097960;28;20047;-72
2022/07/11 11:05:48;;;;;;;1.80;0.15;;;20.60;99.90;;;;;;5096105;28;20039;-73
2022/07/11 11:08:32;;;;;;;1.00;0.20;;;20.70;99.90;;;;;;5097594;28;20111;-72
2022/07/11 11:11:02;;;;;;;3.03;0.73;;;20.80;99.90;;;;;;5097528;28;20436;-72
2022/07/11 11:13:29;;;;;;;0.52;0.10;;;20.60;99.90;;;;;;5097824;28;20071;-71
2022/07/11 11:15:56;;;;;;;1.13;0.40;;;20.50;99.90;;;;;;5098185;28;20044;-72
2022/07/11 11:18:25;;;;;;;3.35;0.35;;;20.40;99.90;;;;;;5098520;28;20047;-70
2022/07/11 11:21:02;;;;;;;0.90;0.22;;;20.50;99.90;;;;;;5098569;28;20096;-85
2022/07/11 11:23:45;;;;;;;0.95;0.15;;;20.40;99.90;;;;;;5080904;28;20476;-85
2022/07/11 11:26:21;;;;;;;0.35;0.17;;;20.30;99.90;;;;;;5097826;28;20055;-85
2022/07/11 11:28:59;;;;;;;1.90;0.35;;;20.10;99.90;;;;;;5081069;28;20039;-86
2022/07/11 11:31:27;;;;;;;1.65;0.30;;;20.30;99.90;;;;;;5080812;28;20036;-87
2022/07/11 11:33:52;;;;;;;2.05;0.20;;;19.90;99.90;;;;;;5063788;28;20089;-72
2022/07/11 11:36:20;;;;;;;0.75;0.28;;;19.70;99.90;;;;;;5098721;28;20313;-70
2022/07/11 11:38:47;;;;;;;2.22;0.20;;;19.80;99.90;;;;;;5098755;28;20048;-71
2022/07/11 11:41:14;;;;;;;0.55;0.15;;;19.90;99.90;;;;;;5098825;28;20048;-72
2022/07/11 11:43:44;;;;;;;1.30;0.20;;;20.00;99.90;;;;;;5097390;28;20132;-71
2022/07/11 11:46:12;;;;;;;0.57;0.10;;;20.10;99.90;;;;;;5097712;28;20048;-71
2022/07/11 11:48:39;;;;;;;0.25;0.10;;;20.30;99.90;;;;;;5098581;28;20036;-71
2022/07/11 11:51:06;;;;;;;0.68;0.10;;;20.50;99.90;;;;;;5097060;28;20363;-70
2022/07/11 11:53:39;;;;;;;3.97;0.28;;;20.50;99.90;;;;;;5091686;28;20421;-71
2022/07/11 11:56:16;;;;;;;0.75;0.10;;;20.30;99.90;;;;;;5097788;28;20050;-71
2022/07/11 11:58:43;;;;;;;1.25;0.10;;;20.50;99.90;;;;;;5097933;28;20032;-71
2022/07/11 12:01:13;;;;;;;0.95;0.20;;;20.70;99.90;;;;;;5098135;28;20042;-71
2022/07/11 12:04:02;;;;;;;1.02;0.20;;;20.70;99.90;;;;;;5097834;28;20032;-70
2022/07/11 12:06:33;;;;;;;1.40;0.30;;;20.70;99.90;;;;;;5097715;28;20451;-71
2022/07/11 12:09:09;;;;;;;0.82;0.13;;;20.80;99.90;;;;;;5098211;28;20078;-70
2022/07/11 12:11:36;;;;;;;1.00;0.10;;;20.70;99.90;;;;;;5097877;28;20047;-70
2022/07/11 12:14:07;;;;;;;0.98;0.20;;;20.90;99.90;;;;;;5098026;28;20118;-70
2022/07/11 12:16:43;;;;;;;0.50;0.13;;;20.80;99.90;;;;;;5098116;28;20051;-70
2022/07/11 12:19:19;;;;;;;2.72;0.20;;;20.90;99.90;;;;;;5097860;28;20032;-70
2022/07/11 12:21:47;;;;;;;2.28;0.30;;;21.00;99.90;;;;;;5097324;28;20036;-71
2022/07/11 12:24:28;;;;;;;0.40;0.13;;;21.00;99.90;;;;;;5096464;28;20115;-71
2022/07/11 12:26:55;;;;;;;2.53;0.30;;;21.10;99.90;;;;;;5097842;28;20044;-70
2022/07/11 12:29:27;;;;;;;0.38;0.20;;;21.00;99.90;;;;;;5091841;28;20043;-70
2022/07/11 12:31:57;;;;;;;3.50;0.30;;;21.00;99.90;;;;;;5082930;28;20043;-69
2022/07/11 12:34:47;;;;;;;3.03;0.35;;;20.90;99.90;;;;;;5077031;28;20437;-69
2022/07/11 12:37:18;;;;;;;0.85;0.40;;;20.90;99.90;;;;;;5068428;28;20064;-70
2022/07/11 12:39:49;;;;;;;0.75;0.20;;;20.80;99.90;;;;;;5077151;28;20045;-70
2022/07/11 12:42:28;;;;;;;0.90;0.22;;;20.80;99.90;;;;;;5080431;28;20036;-68
2022/07/11 12:45:07;;;;;;;0.77;0.50;;;20.70;99.90;;;;;;5091425;28;20131;-71
2022/07/11 12:47:41;;;;;;;1.38;0.40;;;20.60;99.90;;;;;;5090560;28;20032;-70
2022/07/11 12:50:16;;;;;;;1.08;0.30;;;20.70;99.90;;;;;;5092435;28;20102;-70
2022/07/11 12:52:47;;;;;;;1.40;0.20;;;20.70;99.90;;;;;;5096676;28;20043;-70
2022/07/11 12:55:24;;;;;;;2.10;0.28;;;20.60;99.90;;;;;;5096876;28;20040;-69
2022/07/11 12:58:02;;;;;;;3.80;0.35;;;20.70;99.90;;;;;;5094200;28;20043;-69